Time;durP1;ratioP1;P1;durP2;ratioP2;P2;SDS_P1;SDS_P2;PMS_P1;PMS_P2;Temp;Humidity;BMP_temperature;BMP_pressure;BME280_temperature;BME280_humidity;BME280_pressure;Samples;Min_cycle;Max_cycle;Signal;HPM_P1;HPM_P2
2022/01/27 00:01:07;;;;;;;29.20;11.98;;;6.10;99.90;;;;;;5052270;28;20032;-37
2022/01/27 00:05:40;;;;;;;26.25;11.18;;;6.10;99.90;;;;;;5033377;28;20029;-37
2022/01/27 00:13:15;;;;;;;26.35;11.13;;;6.10;99.90;;;;;;5053054;28;20095;-38
2022/01/27 00:15:47;;;;;;;26.17;11.27;;;6.10;99.90;;;;;;5051563;28;20020;-37
2022/01/27 00:18:17;;;;;;;26.45;10.88;;;6.10;99.90;;;;;;5043443;28;20033;-37
2022/01/27 00:20:47;;;;;;;29.58;11.75;;;6.10;99.90;;;;;;5047188;28;20024;-37
2022/01/27 00:23:12;;;;;;;31.08;10.40;;;6.20;99.90;;;;;;5035893;28;20144;-39
2022/01/27 00:25:38;;;;;;;33.65;11.15;;;6.10;99.90;;;;;;5051759;28;20131;-36
2022/01/27 00:28:05;;;;;;;25.65;11.45;;;6.10;99.90;;;;;;5036219;28;20466;-57
2022/01/27 00:30:32;;;;;;;22.75;10.73;;;6.10;99.90;;;;;;5039073;28;20025;-38
2022/01/27 00:32:58;;;;;;;27.17;10.43;;;6.10;99.90;;;;;;5052433;28;20017;-38
2022/01/27 00:35:24;;;;;;;27.40;11.70;;;6.10;99.90;;;;;;5046903;28;20474;-38
2022/01/27 00:37:49;;;;;;;25.35;10.68;;;6.20;99.90;;;;;;5053411;28;20047;-43
2022/01/27 00:40:15;;;;;;;27.27;10.82;;;6.20;99.90;;;;;;5056654;28;20040;-39
2022/01/27 00:42:42;;;;;;;25.83;10.25;;;6.20;99.90;;;;;;5056418;28;20541;-49
2022/01/27 00:45:09;;;;;;;24.85;10.20;;;6.20;99.90;;;;;;5053926;28;20025;-43
2022/01/27 00:47:36;;;;;;;28.00;10.10;;;6.20;99.90;;;;;;5047515;28;20044;-38
2022/01/27 00:50:03;;;;;;;30.73;11.63;;;6.20;99.90;;;;;;5035402;28;20030;-39
2022/01/27 00:52:36;;;;;;;21.40;10.43;;;6.30;99.90;;;;;;5037445;28;20021;-38
2022/01/27 00:55:03;;;;;;;23.40;10.18;;;6.20;99.90;;;;;;5036469;28;20058;-37
2022/01/27 00:59:59;;;;;;;25.25;10.32;;;6.20;99.90;;;;;;5036644;28;20466;-38
2022/01/27 01:05:41;;;;;;;28.65;10.25;;;6.30;99.90;;;;;;5052868;28;20083;-37
2022/01/27 01:09:15;;;;;;;19.95;9.75;;;6.30;99.90;;;;;;5055120;28;20495;-44
2022/01/27 01:19:04;;;;;;;27.48;10.73;;;6.30;99.90;;;;;;5041978;28;20037;-37
2022/01/27 01:29:54;;;;;;;25.27;10.55;;;6.20;99.90;;;;;;5055857;28;20496;-37
2022/01/27 01:32:41;;;;;;;29.90;11.60;;;6.20;99.90;;;;;;5043694;28;20028;-45
2022/01/27 01:35:08;;;;;;;22.67;8.70;;;6.20;99.90;;;;;;5041684;28;20446;-37
2022/01/27 01:37:40;;;;;;;28.92;10.68;;;6.20;99.90;;;;;;5055757;28;20017;-50
2022/01/27 01:40:10;;;;;;;23.98;11.80;;;6.20;99.90;;;;;;5046266;28;20470;-47
2022/01/27 01:42:35;;;;;;;23.48;10.00;;;6.20;99.90;;;;;;5035837;28;20030;-37
2022/01/27 01:45:10;;;;;;;31.65;10.88;;;6.20;99.90;;;;;;5035601;28;20109;-37
2022/01/27 01:47:37;;;;;;;27.85;10.25;;;6.20;99.90;;;;;;5035497;28;20477;-43
2022/01/27 01:50:04;;;;;;;27.65;11.13;;;6.20;99.90;;;;;;5043697;28;20032;-37
2022/01/27 01:52:30;;;;;;;20.55;9.88;;;6.20;99.90;;;;;;5038431;28;20100;-37
2022/01/27 01:54:56;;;;;;;25.83;10.15;;;6.10;99.90;;;;;;5054727;28;20132;-38
2022/01/27 01:57:22;;;;;;;30.67;10.35;;;6.20;99.90;;;;;;5055301;28;20033;-37
2022/01/27 01:59:47;;;;;;;24.83;11.18;;;6.20;99.90;;;;;;5053787;28;20465;-38
2022/01/27 02:02:13;;;;;;;25.55;11.90;;;6.20;99.90;;;;;;5045230;28;20041;-39
2022/01/27 02:04:40;;;;;;;32.08;10.60;;;6.30;99.90;;;;;;5035434;28;20093;-37
2022/01/27 02:07:14;;;;;;;29.80;10.07;;;6.20;99.90;;;;;;5034950;28;20017;-37
2022/01/27 02:18:26;;;;;;;24.27;10.48;;;6.10;99.90;;;;;;5012831;28;20037;-38
2022/01/27 02:20:52;;;;;;;28.50;10.98;;;6.00;99.90;;;;;;5012160;28;20117;-38
2022/01/27 02:23:18;;;;;;;29.42;11.38;;;6.00;99.90;;;;;;5032383;28;20116;-38
2022/01/27 02:25:44;;;;;;;30.48;10.75;;;6.00;99.90;;;;;;5054701;28;20017;-37
2022/01/27 02:28:10;;;;;;;29.52;10.00;;;6.00;99.90;;;;;;5054944;28;20048;-37
2022/01/27 02:30:35;;;;;;;29.45;11.38;;;6.00;99.90;;;;;;5054126;28;20056;-37
2022/01/27 02:33:01;;;;;;;27.92;10.90;;;6.00;99.90;;;;;;5036551;28;20035;-36
2022/01/27 02:35:30;;;;;;;29.65;12.68;;;6.00;99.90;;;;;;5034888;28;20160;-37
2022/01/27 02:37:56;;;;;;;21.70;10.40;;;6.00;99.90;;;;;;5034600;28;20021;-37
2022/01/27 02:40:48;;;;;;;27.50;10.25;;;6.00;99.90;;;;;;5034436;28;20075;-37
2022/01/27 02:43:14;;;;;;;30.58;10.52;;;6.10;99.90;;;;;;5034617;28;20545;-37
2022/01/27 02:46:04;;;;;;;28.77;10.45;;;6.10;99.90;;;;;;5034288;28;20064;-38
2022/01/27 02:48:29;;;;;;;25.50;10.98;;;6.10;99.90;;;;;;5034449;28;20026;-37
2022/01/27 02:50:56;;;;;;;29.70;11.48;;;6.10;99.90;;;;;;5034028;28;20477;-46
2022/01/27 02:53:21;;;;;;;32.78;11.27;;;6.10;99.90;;;;;;5033237;28;20055;-38
2022/01/27 02:55:47;;;;;;;32.80;12.00;;;6.10;99.90;;;;;;5038016;28;20033;-36
2022/01/27 02:58:14;;;;;;;23.60;9.88;;;6.10;99.90;;;;;;5054054;28;20021;-44
2022/01/27 03:00:40;;;;;;;28.52;11.82;;;6.10;99.90;;;;;;5042171;28;20032;-35
2022/01/27 03:03:05;;;;;;;29.98;11.77;;;6.10;99.90;;;;;;5034038;28;20493;-38
2022/01/27 03:05:31;;;;;;;27.67;11.93;;;6.10;99.90;;;;;;5033970;28;20030;-37
2022/01/27 03:07:57;;;;;;;30.08;10.50;;;6.10;99.90;;;;;;5033941;28;20056;-35
2022/01/27 03:10:29;;;;;;;25.65;11.25;;;6.10;99.90;;;;;;5041883;28;20047;-37
2022/01/27 03:12:59;;;;;;;30.48;11.05;;;6.00;99.90;;;;;;5053684;28;20028;-38
2022/01/27 03:15:26;;;;;;;24.38;11.20;;;6.10;99.90;;;;;;5035688;28;20080;-43
2022/01/27 03:17:52;;;;;;;26.70;10.52;;;6.00;99.90;;;;;;5033861;28;20367;-38
2022/01/27 03:20:18;;;;;;;25.05;10.75;;;6.10;99.90;;;;;;5042466;28;20021;-35
2022/01/27 03:22:43;;;;;;;28.65;10.80;;;6.10;99.90;;;;;;5053665;28;20112;-37
2022/01/27 03:25:09;;;;;;;34.85;10.65;;;6.10;99.90;;;;;;5039895;28;20029;-37
2022/01/27 03:27:35;;;;;;;33.47;10.93;;;6.20;99.90;;;;;;5046309;28;20032;-36
2022/01/27 03:30:01;;;;;;;34.58;12.40;;;6.20;99.90;;;;;;5047980;28;20032;-36
2022/01/27 03:32:27;;;;;;;25.75;10.45;;;6.20;99.90;;;;;;5033442;28;20112;-38
2022/01/27 03:34:53;;;;;;;25.88;10.88;;;6.10;99.90;;;;;;5033743;28;20358;-38
2022/01/27 03:37:19;;;;;;;34.85;11.07;;;6.10;99.90;;;;;;5045492;28;20477;-36
2022/01/27 03:39:45;;;;;;;26.90;11.05;;;6.10;99.90;;;;;;5046732;28;20025;-40
2022/01/27 03:42:11;;;;;;;34.67;12.75;;;6.00;99.90;;;;;;5034428;28;20034;-40
2022/01/27 03:44:37;;;;;;;26.85;10.68;;;6.00;99.90;;;;;;5033515;28;20033;-37
2022/01/27 03:47:03;;;;;;;25.33;10.70;;;6.00;99.90;;;;;;5033243;28;20125;-38
2022/01/27 03:49:29;;;;;;;36.08;13.75;;;6.00;99.90;;;;;;5033465;28;20029;-37
2022/01/27 03:52:00;;;;;;;28.98;11.60;;;6.00;99.90;;;;;;5033298;28;20164;-38
2022/01/27 03:54:26;;;;;;;26.83;10.40;;;5.90;99.90;;;;;;5033039;28;20025;-38
2022/01/27 03:56:52;;;;;;;25.40;9.10;;;6.00;99.90;;;;;;5032952;28;20128;-38
2022/01/27 03:59:18;;;;;;;24.27;9.75;;;6.00;99.90;;;;;;5032960;28;20085;-38
2022/01/27 04:01:44;;;;;;;25.08;10.48;;;6.00;99.90;;;;;;5031795;28;20059;-38
2022/01/27 04:04:10;;;;;;;28.77;11.50;;;6.00;99.90;;;;;;5032976;28;20053;-43
2022/01/27 04:06:40;;;;;;;23.92;9.95;;;6.00;99.90;;;;;;5032417;28;20123;-37
2022/01/27 04:09:09;;;;;;;22.73;10.52;;;6.00;99.90;;;;;;5032982;28;20030;-37
2022/01/27 04:11:36;;;;;;;23.33;9.80;;;6.10;99.90;;;;;;5033187;28;20056;-37
2022/01/27 04:14:02;;;;;;;27.67;10.95;;;6.00;99.90;;;;;;5032754;28;20397;-50
2022/01/27 04:16:27;;;;;;;27.13;10.90;;;6.00;99.90;;;;;;5032798;28;20025;-38
2022/01/27 04:18:53;;;;;;;25.48;10.43;;;6.00;99.90;;;;;;5032728;28;20087;-56
2022/01/27 04:21:19;;;;;;;27.05;11.75;;;6.00;99.90;;;;;;5032853;28;20080;-38
2022/01/27 04:23:45;;;;;;;27.88;10.73;;;6.00;99.90;;;;;;5032876;28;20104;-39
2022/01/27 04:26:13;;;;;;;27.27;10.52;;;6.00;99.90;;;;;;5034112;28;20109;-39
2022/01/27 04:28:40;;;;;;;32.85;10.65;;;5.90;99.90;;;;;;5045652;28;20090;-36
2022/01/27 04:31:08;;;;;;;22.48;9.93;;;6.00;99.90;;;;;;5032613;28;20037;-37
2022/01/27 04:33:36;;;;;;;28.05;10.40;;;6.00;99.90;;;;;;5032931;28;20065;-38
2022/01/27 04:36:08;;;;;;;24.90;10.32;;;6.00;99.90;;;;;;5032960;28;20037;-37
2022/01/27 04:41:24;;;;;;;23.55;9.93;;;6.10;99.90;;;;;;5033069;28;20076;-37
2022/01/27 04:46:26;;;;;;;29.40;10.52;;;6.20;99.90;;;;;;5052532;28;20067;-38
2022/01/27 04:48:56;;;;;;;23.52;9.95;;;6.10;99.90;;;;;;5052468;28;20397;-38
2022/01/27 04:51:23;;;;;;;29.27;9.98;;;6.20;99.90;;;;;;5052776;28;20082;-38
2022/01/27 04:56:17;;;;;;;28.27;9.68;;;6.20;99.90;;;;;;5052229;28;20117;-43
2022/01/27 04:58:46;;;;;;;21.75;10.10;;;6.20;99.90;;;;;;5043419;28;20022;-38
2022/01/27 05:01:12;;;;;;;23.60;8.60;;;6.20;99.90;;;;;;5032595;28;20032;-38
2022/01/27 05:06:03;;;;;;;22.13;10.05;;;6.30;99.90;;;;;;5032685;28;20063;-39
2022/01/27 05:08:29;;;;;;;22.55;7.63;;;6.30;99.90;;;;;;5032222;28;20532;-37
2022/01/27 05:11:03;;;;;;;29.70;10.50;;;6.30;99.90;;;;;;5032617;28;20025;-38
2022/01/27 05:13:36;;;;;;;29.10;9.45;;;6.30;99.90;;;;;;5032514;28;20091;-38
2022/01/27 05:16:03;;;;;;;28.48;9.48;;;6.30;99.90;;;;;;5032587;28;20030;-38
2022/01/27 05:18:28;;;;;;;33.60;9.65;;;6.30;99.90;;;;;;5033342;28;20034;-39
2022/01/27 05:20:54;;;;;;;29.73;9.23;;;6.40;99.90;;;;;;5039950;28;20063;-39
2022/01/27 05:23:20;;;;;;;20.02;8.88;;;6.40;99.90;;;;;;5055909;28;20029;-45
2022/01/27 05:25:45;;;;;;;28.00;9.27;;;6.30;99.90;;;;;;5055872;28;20485;-39
2022/01/27 05:28:11;;;;;;;20.85;8.02;;;6.40;99.90;;;;;;5049114;28;20030;-39
2022/01/27 05:30:36;;;;;;;21.88;8.48;;;6.50;99.90;;;;;;5035855;28;20026;-37
2022/01/27 05:33:02;;;;;;;26.98;7.90;;;6.50;99.90;;;;;;5035744;28;20037;-37
2022/01/27 05:35:28;;;;;;;29.60;9.38;;;6.50;99.90;;;;;;5035711;28;20029;-36
2022/01/27 05:37:53;;;;;;;22.30;7.70;;;6.50;99.90;;;;;;5036321;28;20029;-39
2022/01/27 05:40:19;;;;;;;24.05;8.65;;;6.50;99.90;;;;;;5035590;28;20079;-56
2022/01/27 05:42:45;;;;;;;24.20;8.10;;;6.60;99.90;;;;;;5035542;28;20026;-37
2022/01/27 05:45:11;;;;;;;29.60;8.55;;;6.70;99.90;;;;;;5048733;28;20029;-37
2022/01/27 05:47:37;;;;;;;15.15;7.75;;;6.70;99.90;;;;;;5040251;28;20036;-36
2022/01/27 05:50:03;;;;;;;22.95;8.13;;;6.70;99.90;;;;;;5035534;28;20057;-38
2022/01/27 05:52:28;;;;;;;23.55;7.13;;;6.70;99.90;;;;;;5035275;28;20026;-38
2022/01/27 05:54:54;;;;;;;24.23;7.15;;;6.80;99.90;;;;;;5035099;28;20045;-38
2022/01/27 05:57:20;;;;;;;17.95;7.20;;;6.80;99.90;;;;;;5034557;28;20394;-55
2022/01/27 05:59:45;;;;;;;19.63;7.80;;;6.80;99.90;;;;;;5035350;28;20022;-43
2022/01/27 06:02:11;;;;;;;28.63;8.07;;;6.90;99.90;;;;;;5035174;28;20516;-37
2022/01/27 06:04:37;;;;;;;25.35;7.55;;;6.90;99.90;;;;;;5035276;28;20108;-36
2022/01/27 06:07:02;;;;;;;22.50;7.63;;;6.90;99.90;;;;;;5035169;28;20053;-37
2022/01/27 06:09:28;;;;;;;22.83;7.47;;;6.90;99.90;;;;;;5035041;28;20025;-38
2022/01/27 06:11:54;;;;;;;31.90;7.25;;;7.00;99.90;;;;;;5035024;28;20398;-38
2022/01/27 06:14:19;;;;;;;26.63;7.20;;;7.00;99.90;;;;;;5033608;28;20037;-38
2022/01/27 06:16:45;;;;;;;28.20;6.57;;;7.00;99.90;;;;;;5034903;28;20033;-38
2022/01/27 06:19:12;;;;;;;20.95;7.15;;;7.10;99.90;;;;;;5034807;28;20386;-38
2022/01/27 06:21:39;;;;;;;20.23;6.97;;;7.10;99.90;;;;;;5034792;28;20030;-36
2022/01/27 06:24:05;;;;;;;24.90;8.40;;;7.00;99.90;;;;;;5034963;28;20486;-38
2022/01/27 06:26:31;;;;;;;20.20;6.75;;;7.00;99.90;;;;;;5034651;28;20474;-37
2022/01/27 06:28:57;;;;;;;19.88;6.25;;;7.00;99.90;;;;;;5034589;28;20075;-38
2022/01/27 06:31:23;;;;;;;20.58;7.45;;;7.10;99.90;;;;;;5033819;28;20082;-38
2022/01/27 06:33:49;;;;;;;15.18;6.53;;;7.20;99.90;;;;;;5034482;28;20552;-40
2022/01/27 06:36:15;;;;;;;18.27;6.45;;;7.20;99.90;;;;;;5034444;28;20030;-45
2022/01/27 06:38:40;;;;;;;21.20;7.22;;;7.20;99.90;;;;;;5034539;28;20105;-38
2022/01/27 06:41:06;;;;;;;18.23;6.03;;;7.20;99.90;;;;;;5034826;28;20026;-49
2022/01/27 06:43:32;;;;;;;22.63;5.88;;;7.30;99.90;;;;;;5034389;28;20053;-37
2022/01/27 06:45:57;;;;;;;26.95;6.70;;;7.40;99.90;;;;;;5033058;28;20120;-40
2022/01/27 06:48:23;;;;;;;21.20;5.80;;;7.40;99.90;;;;;;5034607;28;20032;-38
2022/01/27 06:50:55;;;;;;;14.48;6.30;;;7.50;99.90;;;;;;5034308;28;20100;-38
2022/01/27 06:53:22;;;;;;;25.15;6.65;;;7.50;99.90;;;;;;5034515;28;20028;-38
2022/01/27 06:55:48;;;;;;;26.20;6.95;;;7.60;99.90;;;;;;5050255;28;20080;-37
2022/01/27 06:58:13;;;;;;;17.85;6.72;;;7.60;99.90;;;;;;5053941;28;20071;-37
2022/01/27 07:00:39;;;;;;;20.73;5.70;;;7.60;99.90;;;;;;5054057;28;20398;-37
2022/01/27 07:03:05;;;;;;;18.88;6.63;;;7.50;99.90;;;;;;5054191;28;20017;-38
2022/01/27 07:05:32;;;;;;;27.40;6.80;;;7.60;99.90;;;;;;5053083;28;20074;-38
2022/01/27 07:07:59;;;;;;;15.70;6.83;;;7.60;99.90;;;;;;5034236;28;20493;-38
2022/01/27 07:10:24;;;;;;;28.08;6.30;;;7.50;99.90;;;;;;5033766;28;20268;-39
2022/01/27 07:12:50;;;;;;;24.23;6.82;;;7.50;99.90;;;;;;5033735;28;20052;-37
2022/01/27 07:15:16;;;;;;;22.92;6.60;;;7.40;99.90;;;;;;5033759;28;20045;-38
2022/01/27 07:17:42;;;;;;;27.35;7.57;;;7.40;99.90;;;;;;5052005;28;20082;-38
2022/01/27 07:20:08;;;;;;;19.95;6.07;;;7.30;99.90;;;;;;5053662;28;20469;-38
2022/01/27 07:22:35;;;;;;;21.05;6.60;;;7.20;99.90;;;;;;5052950;28;20021;-38
2022/01/27 07:25:03;;;;;;;16.83;6.53;;;7.30;99.90;;;;;;5053574;28;20031;-38
2022/01/27 07:27:30;;;;;;;20.23;5.95;;;7.40;99.90;;;;;;5048926;28;20025;-58
2022/01/27 07:29:56;;;;;;;26.80;7.30;;;7.30;99.90;;;;;;5053477;28;20021;-41
2022/01/27 07:32:22;;;;;;;30.50;7.88;;;7.30;99.90;;;;;;5052609;28;20029;-39
2022/01/27 07:34:47;;;;;;;29.65;7.05;;;7.30;99.90;;;;;;5053677;28;20060;-39
2022/01/27 07:37:13;;;;;;;17.33;6.85;;;7.30;99.90;;;;;;5051022;28;20462;-39
2022/01/27 07:39:39;;;;;;;27.23;7.72;;;7.30;99.90;;;;;;5049890;28;20104;-39
2022/01/27 07:42:04;;;;;;;33.80;8.20;;;7.30;99.90;;;;;;5049329;28;20053;-39
2022/01/27 07:44:30;;;;;;;22.73;7.60;;;7.40;99.90;;;;;;5033592;28;20033;-38
2022/01/27 07:46:56;;;;;;;33.45;6.15;;;7.40;99.90;;;;;;5033360;28;20032;-39
2022/01/27 07:49:21;;;;;;;22.92;6.88;;;7.40;99.90;;;;;;5033504;28;20029;-39
2022/01/27 07:51:47;;;;;;;22.77;7.80;;;7.40;99.90;;;;;;5032212;28;20029;-40
2022/01/27 07:54:13;;;;;;;22.73;7.47;;;7.40;99.90;;;;;;5033264;28;20025;-46
2022/01/27 07:56:38;;;;;;;24.45;7.78;;;7.40;99.90;;;;;;5042089;28;20128;-39
2022/01/27 07:59:04;;;;;;;24.33;7.47;;;7.40;99.90;;;;;;5053113;28;20052;-39
2022/01/27 08:01:30;;;;;;;18.80;6.28;;;7.40;99.90;;;;;;5052864;28;20473;-39
2022/01/27 08:03:56;;;;;;;27.40;7.45;;;7.40;99.90;;;;;;5047205;28;20034;-36
2022/01/27 08:06:21;;;;;;;22.35;7.35;;;7.40;99.90;;;;;;5049614;28;20067;-39
2022/01/27 08:08:48;;;;;;;34.60;8.15;;;7.40;99.90;;;;;;5052542;28;20020;-40
2022/01/27 08:11:14;;;;;;;18.75;6.78;;;7.40;99.90;;;;;;5052875;28;20082;-54
2022/01/27 08:13:40;;;;;;;22.95;5.90;;;7.40;99.90;;;;;;5047960;28;20062;-37
2022/01/27 08:16:06;;;;;;;30.27;6.97;;;7.50;99.90;;;;;;5032843;28;20021;-39
2022/01/27 08:18:32;;;;;;;20.02;6.55;;;7.50;99.90;;;;;;5033048;28;20044;-38
2022/01/27 08:20:57;;;;;;;28.88;7.38;;;7.60;99.90;;;;;;5032750;28;20022;-38
2022/01/27 08:23:23;;;;;;;22.25;6.93;;;7.60;99.90;;;;;;5032697;28;20032;-38
2022/01/27 08:25:58;;;;;;;16.52;6.82;;;7.60;99.90;;;;;;5031357;28;20523;-38
2022/01/27 08:28:32;;;;;;;24.58;8.05;;;7.60;99.90;;;;;;5051653;28;20481;-39
2022/01/27 08:30:59;;;;;;;21.77;6.75;;;7.50;99.90;;;;;;5052420;28;20024;-37
2022/01/27 08:33:28;;;;;;;27.30;6.72;;;7.50;99.90;;;;;;5040336;28;20029;-38
2022/01/27 08:35:54;;;;;;;20.27;7.32;;;7.50;99.90;;;;;;5032981;28;20521;-39
2022/01/27 08:38:20;;;;;;;25.85;7.35;;;7.50;99.90;;;;;;5032446;28;20037;-47
2022/01/27 08:40:46;;;;;;;24.25;6.88;;;7.60;99.90;;;;;;5032577;28;20072;-37
2022/01/27 08:43:12;;;;;;;27.27;6.65;;;7.60;99.90;;;;;;5032499;28;20516;-38
2022/01/27 08:45:39;;;;;;;18.60;6.13;;;7.60;99.90;;;;;;5032577;28;20022;-40
2022/01/27 08:48:06;;;;;;;19.98;6.22;;;7.60;99.90;;;;;;5042893;28;20108;-38
2022/01/27 08:50:32;;;;;;;21.57;6.93;;;7.60;99.90;;;;;;5052701;28;20024;-37
2022/01/27 08:52:58;;;;;;;19.95;6.70;;;7.60;99.90;;;;;;5052833;28;20370;-38
2022/01/27 08:55:24;;;;;;;17.45;6.13;;;7.70;99.90;;;;;;5056277;28;20112;-39
2022/01/27 08:57:50;;;;;;;14.77;6.90;;;7.80;99.90;;;;;;5049568;28;20397;-38
2022/01/27 09:00:19;;;;;;;14.63;6.13;;;7.80;99.90;;;;;;5039708;28;20490;-39
2022/01/27 09:02:45;;;;;;;22.60;6.82;;;7.90;99.90;;;;;;5038343;28;20525;-44
2022/01/27 09:05:10;;;;;;;20.08;6.72;;;7.90;99.90;;;;;;5045281;28;20126;-39
2022/01/27 09:07:36;;;;;;;17.92;6.63;;;7.90;99.90;;;;;;5051731;28;20030;-39
2022/01/27 09:10:03;;;;;;;17.67;7.35;;;7.90;99.90;;;;;;5035885;28;20380;-38
2022/01/27 09:12:29;;;;;;;19.13;6.72;;;7.90;99.90;;;;;;5036097;28;20033;-37
2022/01/27 09:14:56;;;;;;;18.95;7.30;;;7.90;99.90;;;;;;5036121;28;20013;-38
2022/01/27 09:17:25;;;;;;;15.90;6.07;;;7.90;99.90;;;;;;5036283;28;20034;-38
2022/01/27 09:19:51;;;;;;;16.90;7.63;;;8.00;99.90;;;;;;5037299;28;20056;-38
2022/01/27 09:22:19;;;;;;;21.63;7.10;;;8.00;99.90;;;;;;5040506;28;20473;-38
2022/01/27 09:24:59;;;;;;;24.80;7.25;;;8.00;99.90;;;;;;5040212;28;20067;-37
2022/01/27 09:27:26;;;;;;;13.55;7.03;;;8.00;99.90;;;;;;5035962;28;20029;-37
2022/01/27 09:29:53;;;;;;;32.35;8.32;;;8.00;99.90;;;;;;5036043;28;20029;-38
2022/01/27 09:32:19;;;;;;;18.17;7.50;;;8.10;99.90;;;;;;5036571;28;20025;-41
2022/01/27 09:34:46;;;;;;;19.65;7.70;;;8.10;99.90;;;;;;5036722;28;20071;-39
2022/01/27 09:37:11;;;;;;;23.77;6.70;;;8.10;99.90;;;;;;5035663;28;20029;-36
2022/01/27 09:39:38;;;;;;;28.88;8.80;;;8.20;99.90;;;;;;5035965;28;20024;-38
2022/01/27 09:42:06;;;;;;;23.48;6.63;;;8.20;99.90;;;;;;5046681;28;20170;-38
2022/01/27 09:44:33;;;;;;;;;;;8.20;99.90;;;;;;5055958;28;20033;-38
2022/01/27 09:47:02;;;;;;;16.75;7.88;;;8.10;99.90;;;;;;5055340;28;19905;-37
2022/01/27 09:52:27;;;;;;;26.48;7.32;;;8.10;99.90;;;;;;5024793;28;20030;-39
2022/01/27 09:54:52;;;;;;;18.67;6.53;;;8.30;99.90;;;;;;5035684;28;20024;-39
2022/01/27 09:57:18;;;;;;;23.75;7.90;;;8.40;99.90;;;;;;5039904;28;20379;-39
2022/01/27 09:59:47;;;;;;;21.73;7.47;;;8.50;99.90;;;;;;5035255;28;20026;-42
2022/01/27 10:02:26;;;;;;;30.95;7.07;;;8.50;99.90;;;;;;5044179;28;20017;-41
2022/01/27 10:04:54;;;;;;;31.67;8.48;;;8.50;99.90;;;;;;5053772;28;20028;-39
2022/01/27 10:07:21;;;;;;;22.67;7.38;;;8.50;99.90;;;;;;5044920;28;20029;-47
2022/01/27 10:10:06;;;;;;;20.27;7.07;;;8.50;99.90;;;;;;5034835;28;20021;-38
2022/01/27 10:12:40;;;;;;;17.48;6.95;;;8.60;99.90;;;;;;5034887;28;20034;-36
2022/01/27 10:15:13;;;;;;;30.13;7.57;;;8.60;99.90;;;;;;5035306;28;20022;-36
2022/01/27 10:18:07;;;;;;;19.25;5.93;;;8.70;99.90;;;;;;5054876;28;20017;-40
2022/01/27 10:20:34;;;;;;;24.38;6.63;;;8.60;99.90;;;;;;5053464;28;20151;-37
2022/01/27 10:23:21;;;;;;;17.10;4.15;;;8.60;99.90;;;;;;5054833;28;20024;-39
2022/01/27 10:25:57;;;;;;;22.57;6.80;;;8.60;99.90;;;;;;5034646;28;20057;-43
2022/01/27 10:28:41;;;;;;;19.83;6.47;;;8.60;99.90;;;;;;5034960;28;20025;-39
2022/01/27 10:31:09;;;;;;;19.30;5.43;;;8.60;99.90;;;;;;5043613;28;20086;-39
2022/01/27 10:33:42;;;;;;;14.00;5.28;;;8.70;99.90;;;;;;5054057;28;20037;-39
2022/01/27 10:36:18;;;;;;;39.13;6.72;;;8.70;99.90;;;;;;5054888;28;20492;-43
2022/01/27 10:38:44;;;;;;;17.00;5.07;;;8.60;99.90;;;;;;5052605;28;20025;-38
2022/01/27 10:41:10;;;;;;;16.05;4.50;;;8.60;99.90;;;;;;5054513;28;20033;-38
2022/01/27 10:43:35;;;;;;;15.15;4.93;;;8.60;99.90;;;;;;5054374;28;20481;-39
2022/01/27 10:46:20;;;;;;;15.23;5.35;;;8.70;99.90;;;;;;5054280;28;20552;-40
2022/01/27 10:48:58;;;;;;;18.48;4.38;;;8.70;99.90;;;;;;5052476;28;20027;-39
2022/01/27 10:51:32;;;;;;;;;;;8.70;99.90;;;;;;5035378;28;20099;-40
2022/01/27 10:56:27;;;;;;;14.30;3.85;;;8.80;99.90;;;;;;5053990;28;20049;-39
2022/01/27 10:58:55;;;;;;;14.93;4.75;;;8.90;99.90;;;;;;5043174;28;20056;-40
2022/01/27 11:01:41;;;;;;;14.65;4.00;;;8.90;99.90;;;;;;5051323;28;20095;-42
2022/01/27 11:04:09;;;;;;;23.67;4.35;;;8.90;99.90;;;;;;5053952;28;20485;-40
2022/01/27 11:06:35;;;;;;;;;;;9.00;99.90;;;;;;5054451;28;20083;-41
2022/01/27 11:09:09;;;;;;;15.18;4.72;;;8.90;99.90;;;;;;5041978;28;19909;-40
2022/01/27 11:11:38;;;;;;;26.98;4.75;;;8.90;99.90;;;;;;5038093;28;20044;-40
2022/01/27 11:14:04;;;;;;;14.68;4.57;;;8.90;99.90;;;;;;5041854;28;20033;-42
2022/01/27 11:16:37;;;;;;;19.67;4.57;;;8.90;99.90;;;;;;5047954;28;20044;-40
2022/01/27 11:19:20;;;;;;;16.90;4.20;;;8.90;99.90;;;;;;5042386;28;20096;-38
2022/01/27 11:21:51;;;;;;;16.58;4.78;;;8.90;99.90;;;;;;5052897;28;20477;-46
2022/01/27 11:24:30;;;;;;;10.93;3.70;;;9.00;99.90;;;;;;5036013;28;20072;-40
2022/01/27 11:27:01;;;;;;;16.27;3.97;;;9.00;99.90;;;;;;5038430;28;20482;-48
2022/01/27 11:29:30;;;;;;;17.90;5.30;;;9.10;99.90;;;;;;5053424;28;20516;-41
2022/01/27 11:32:16;;;;;;;20.55;5.18;;;9.10;99.90;;;;;;5044075;28;20013;-41
2022/01/27 11:34:53;;;;;;;9.07;2.50;;;9.00;99.90;;;;;;5033504;28;20029;-43
2022/01/27 11:37:35;;;;;;;15.35;4.00;;;9.10;99.90;;;;;;5033962;28;20036;-41
2022/01/27 11:40:07;;;;;;;13.20;3.65;;;9.10;99.90;;;;;;5033389;28;20022;-41
2022/01/27 11:42:37;;;;;;;16.55;3.50;;;9.10;99.90;;;;;;5036739;28;20026;-40
2022/01/27 11:45:21;;;;;;;6.60;3.80;;;9.10;99.90;;;;;;5032958;28;20382;-44
2022/01/27 11:48:01;;;;;;;12.52;3.92;;;9.20;99.90;;;;;;5043581;28;20126;-36
2022/01/27 11:50:34;;;;;;;19.67;3.28;;;9.20;99.90;;;;;;5036321;28;20017;-40
2022/01/27 11:53:07;;;;;;;11.63;3.53;;;9.20;99.90;;;;;;5049835;28;20068;-39
2022/01/27 11:55:33;;;;;;;17.60;3.83;;;9.20;99.90;;;;;;5051561;28;20056;-39
2022/01/27 11:58:11;;;;;;;11.63;3.17;;;9.10;99.90;;;;;;5047440;28;20422;-40
2022/01/27 12:00:37;;;;;;;11.23;3.07;;;9.10;99.90;;;;;;5035791;28;20025;-39
2022/01/27 12:03:03;;;;;;;14.52;3.72;;;9.20;99.90;;;;;;5051688;28;20275;-39
2022/01/27 12:05:31;;;;;;;12.27;2.97;;;9.20;99.90;;;;;;5040416;28;20034;-42
2022/01/27 12:08:08;;;;;;;;;;;9.10;99.90;;;;;;5033769;28;20061;-39
2022/01/27 12:10:59;;;;;;;7.13;2.85;;;9.20;99.90;;;;;;5039587;28;19909;-39
2022/01/27 12:13:26;;;;;;;9.38;3.03;;;9.20;99.90;;;;;;5041377;28;20025;-39
2022/01/27 12:19:09;;;;;;;8.95;3.03;;;9.20;99.90;;;;;;5039042;28;20029;-40
2022/01/27 12:21:54;;;;;;;7.57;2.92;;;9.30;99.90;;;;;;5048688;28;20060;-40
2022/01/27 12:24:27;;;;;;;14.68;3.42;;;9.40;99.90;;;;;;5052723;28;20493;-39
2022/01/27 12:27:07;;;;;;;10.63;3.42;;;9.40;99.90;;;;;;5038662;28;20478;-45
2022/01/27 12:29:41;;;;;;;16.88;3.80;;;9.50;99.90;;;;;;5045728;28;20562;-44
2022/01/27 12:32:09;;;;;;;9.13;2.80;;;9.50;99.90;;;;;;5033506;28;20374;-43
2022/01/27 12:34:38;;;;;;;9.98;3.20;;;9.50;99.90;;;;;;5040263;28;20029;-40
2022/01/27 12:37:11;;;;;;;16.63;2.95;;;9.50;99.90;;;;;;5038786;28;20496;-38
2022/01/27 12:39:49;;;;;;;12.57;3.20;;;9.50;99.90;;;;;;5033820;28;20529;-41
2022/01/27 12:42:16;;;;;;;9.27;3.50;;;9.50;99.90;;;;;;5048183;28;20021;-44
2022/01/27 12:44:56;;;;;;;5.18;2.70;;;9.50;99.90;;;;;;5037463;28;20044;-41
2022/01/27 12:47:23;;;;;;;14.95;3.95;;;9.60;99.90;;;;;;5042840;28;20048;-42
2022/01/27 12:50:06;;;;;;;19.30;2.78;;;9.60;99.90;;;;;;5036082;28;20033;-40
2022/01/27 12:52:37;;;;;;;15.95;3.65;;;9.60;99.90;;;;;;5041068;28;20033;-42
2022/01/27 12:55:04;;;;;;;14.15;2.97;;;9.70;99.90;;;;;;5050832;28;20036;-44
2022/01/27 12:57:32;;;;;;;6.75;2.38;;;9.60;99.90;;;;;;5041158;28;20059;-47
2022/01/27 12:59:59;;;;;;;12.32;3.58;;;9.60;99.90;;;;;;5051133;28;20017;-48
2022/01/27 13:02:26;;;;;;;10.03;3.23;;;9.70;99.90;;;;;;5040082;28;20478;-39
2022/01/27 13:04:57;;;;;;;9.95;2.60;;;9.80;99.90;;;;;;5047137;28;20041;-39
2022/01/27 13:07:24;;;;;;;14.10;3.10;;;9.80;99.90;;;;;;5034504;28;20029;-44
2022/01/27 13:10:00;;;;;;;10.80;3.15;;;9.80;99.90;;;;;;5033592;28;20026;-38
2022/01/27 13:12:36;;;;;;;16.33;3.47;;;9.80;99.90;;;;;;5032462;28;20033;-40
2022/01/27 13:15:13;;;;;;;12.38;2.83;;;9.80;99.90;;;;;;5038720;28;20486;-40
2022/01/27 13:18:01;;;;;;;8.45;2.75;;;9.90;99.90;;;;;;5036896;28;20025;-52
2022/01/27 13:23:01;;;;;;;5.00;2.08;;;9.80;99.90;;;;;;5042336;28;20455;-40
2022/01/27 13:25:46;;;;;;;6.18;2.45;;;9.80;99.90;;;;;;5049771;28;20079;-43
2022/01/27 13:28:17;;;;;;;10.65;2.83;;;9.80;99.90;;;;;;5047290;28;20059;-39
2022/01/27 13:30:44;;;;;;;7.97;3.00;;;9.80;99.90;;;;;;5038049;28;20533;-39
2022/01/27 13:33:15;;;;;;;14.13;3.40;;;9.80;99.90;;;;;;5043437;28;20038;-38
2022/01/27 13:35:42;;;;;;;11.25;2.33;;;9.80;99.90;;;;;;5045095;28;20033;-41
2022/01/27 13:38:24;;;;;;;14.48;2.92;;;9.80;99.90;;;;;;5035246;28;20057;-42
2022/01/27 13:41:24;;;;;;;5.85;2.25;;;9.80;99.90;;;;;;5036377;28;20470;-35
2022/01/27 13:44:11;;;;;;;5.38;2.42;;;9.90;99.90;;;;;;5040981;28;20029;-39
2022/01/27 13:46:55;;;;;;;8.70;2.42;;;10.00;99.90;;;;;;5045682;28;20033;-39
2022/01/27 13:49:35;;;;;;;8.68;2.45;;;9.90;99.90;;;;;;5053975;28;20087;-41
2022/01/27 13:52:10;;;;;;;6.75;2.70;;;10.00;99.90;;;;;;5054514;28;20033;-38
2022/01/27 13:54:41;;;;;;;15.07;2.40;;;9.90;99.90;;;;;;5050890;28;20033;-44